sensor_id;sensor_type;location;lat;lon;timestamp;P1;durP1;ratioP1;P2;durP2;ratioP2
7017;SDS011;3549;42.162;24.726;2022-12-11T00:00:14;86.47;;;37.17;;
7017;SDS011;3549;42.162;24.726;2022-12-11T00:02:39;92.00;;;37.63;;
7017;SDS011;3549;42.162;24.726;2022-12-11T00:05:05;89.80;;;38.10;;
7017;SDS011;3549;42.162;24.726;2022-12-11T00:07:31;85.30;;;37.67;;
7017;SDS011;3549;42.162;24.726;2022-12-11T00:09:56;85.30;;;34.73;;
7017;SDS011;3549;42.162;24.726;2022-12-11T00:12:22;85.30;;;38.20;;
7017;SDS011;3549;42.162;24.726;2022-12-11T00:14:47;87.73;;;38.40;;
7017;SDS011;3549;42.162;24.726;2022-12-11T00:17:13;86.27;;;37.53;;
7017;SDS011;3549;42.162;24.726;2022-12-11T00:19:38;91.03;;;38.67;;
7017;SDS011;3549;42.162;24.726;2022-12-11T00:22:03;98.30;;;39.70;;
7017;SDS011;3549;42.162;24.726;2022-12-11T00:24:29;94.57;;;39.50;;
7017;SDS011;3549;42.162;24.726;2022-12-11T00:26:54;103.73;;;41.43;;
7017;SDS011;3549;42.162;24.726;2022-12-11T00:29:20;107.90;;;42.13;;
7017;SDS011;3549;42.162;24.726;2022-12-11T00:31:45;98.53;;;41.70;;
7017;SDS011;3549;42.162;24.726;2022-12-11T00:34:11;87.50;;;37.03;;
7017;SDS011;3549;42.162;24.726;2022-12-11T00:36:36;96.27;;;41.87;;
7017;SDS011;3549;42.162;24.726;2022-12-11T00:39:02;94.57;;;39.37;;
7017;SDS011;3549;42.162;24.726;2022-12-11T00:41:29;99.33;;;39.00;;
7017;SDS011;3549;42.162;24.726;2022-12-11T00:43:55;99.40;;;41.10;;
7017;SDS011;3549;42.162;24.726;2022-12-11T00:46:20;97.77;;;41.20;;
7017;SDS011;3549;42.162;24.726;2022-12-11T00:48:45;101.83;;;40.57;;
7017;SDS011;3549;42.162;24.726;2022-12-11T00:51:13;89.03;;;38.97;;
7017;SDS011;3549;42.162;24.726;2022-12-11T00:53:39;107.37;;;41.23;;
7017;SDS011;3549;42.162;24.726;2022-12-11T00:56:08;88.90;;;38.27;;
7017;SDS011;3549;42.162;24.726;2022-12-11T00:58:38;88.10;;;38.03;;
7017;SDS011;3549;42.162;24.726;2022-12-11T01:01:04;87.40;;;37.47;;
7017;SDS011;3549;42.162;24.726;2022-12-11T01:03:34;95.17;;;38.57;;
7017;SDS011;3549;42.162;24.726;2022-12-11T01:05:59;86.23;;;37.17;;
7017;SDS011;3549;42.162;24.726;2022-12-11T01:08:24;88.93;;;37.40;;
7017;SDS011;3549;42.162;24.726;2022-12-11T01:10:50;87.77;;;36.90;;
7017;SDS011;3549;42.162;24.726;2022-12-11T01:13:15;82.83;;;36.50;;
7017;SDS011;3549;42.162;24.726;2022-12-11T01:15:42;77.77;;;33.83;;
7017;SDS011;3549;42.162;24.726;2022-12-11T01:18:12;78.17;;;33.83;;
7017;SDS011;3549;42.162;24.726;2022-12-11T01:20:39;82.93;;;33.67;;
7017;SDS011;3549;42.162;24.726;2022-12-11T01:23:06;80.43;;;33.67;;
7017;SDS011;3549;42.162;24.726;2022-12-11T01:25:34;77.47;;;33.03;;
7017;SDS011;3549;42.162;24.726;2022-12-11T01:28:02;74.03;;;31.97;;
7017;SDS011;3549;42.162;24.726;2022-12-11T01:30:28;71.60;;;31.37;;
7017;SDS011;3549;42.162;24.726;2022-12-11T01:32:53;78.37;;;32.27;;
7017;SDS011;3549;42.162;24.726;2022-12-11T01:35:19;72.20;;;30.87;;
7017;SDS011;3549;42.162;24.726;2022-12-11T01:37:44;73.83;;;30.30;;
7017;SDS011;3549;42.162;24.726;2022-12-11T01:40:12;66.43;;;30.43;;
7017;SDS011;3549;42.162;24.726;2022-12-11T01:42:38;75.30;;;31.73;;
7017;SDS011;3549;42.162;24.726;2022-12-11T01:48:06;72.17;;;30.47;;
7017;SDS011;3549;42.162;24.726;2022-12-11T01:50:37;68.00;;;30.53;;
7017;SDS011;3549;42.162;24.726;2022-12-11T01:53:07;77.00;;;32.10;;
7017;SDS011;3549;42.162;24.726;2022-12-11T01:55:36;71.60;;;32.23;;
7017;SDS011;3549;42.162;24.726;2022-12-11T01:58:03;75.63;;;31.93;;
7017;SDS011;3549;42.162;24.726;2022-12-11T02:00:29;75.70;;;31.80;;
7017;SDS011;3549;42.162;24.726;2022-12-11T02:02:54;73.37;;;32.83;;
7017;SDS011;3549;42.162;24.726;2022-12-11T02:05:20;79.03;;;33.17;;
7017;SDS011;3549;42.162;24.726;2022-12-11T02:07:47;74.40;;;33.40;;
7017;SDS011;3549;42.162;24.726;2022-12-11T02:10:18;69.13;;;32.60;;
7017;SDS011;3549;42.162;24.726;2022-12-11T02:12:50;83.53;;;36.00;;
7017;SDS011;3549;42.162;24.726;2022-12-11T02:15:31;157.73;;;61.83;;
7017;SDS011;3549;42.162;24.726;2022-12-11T02:18:06;439.80;;;178.87;;
7017;SDS011;3549;42.162;24.726;2022-12-11T02:20:49;289.87;;;109.87;;
7017;SDS011;3549;42.162;24.726;2022-12-11T02:29:38;223.60;;;85.90;;
7017;SDS011;3549;42.162;24.726;2022-12-11T02:35:19;176.47;;;70.37;;
7017;SDS011;3549;42.162;24.726;2022-12-11T02:37:50;127.57;;;51.17;;
7017;SDS011;3549;42.162;24.726;2022-12-11T02:40:21;128.27;;;51.73;;
7017;SDS011;3549;42.162;24.726;2022-12-11T02:42:50;133.53;;;53.70;;
7017;SDS011;3549;42.162;24.726;2022-12-11T02:45:19;118.33;;;48.63;;
7017;SDS011;3549;42.162;24.726;2022-12-11T02:47:47;103.07;;;42.30;;
7017;SDS011;3549;42.162;24.726;2022-12-11T02:50:14;123.33;;;58.67;;
7017;SDS011;3549;42.162;24.726;2022-12-11T02:52:43;412.63;;;216.67;;
7017;SDS011;3549;42.162;24.726;2022-12-11T02:55:12;292.77;;;123.17;;
7017;SDS011;3549;42.162;24.726;2022-12-11T02:57:44;300.80;;;131.07;;
7017;SDS011;3549;42.162;24.726;2022-12-11T03:00:15;306.20;;;130.77;;
7017;SDS011;3549;42.162;24.726;2022-12-11T03:02:42;547.13;;;288.43;;
7017;SDS011;3549;42.162;24.726;2022-12-11T03:05:08;479.40;;;238.13;;
7017;SDS011;3549;42.162;24.726;2022-12-11T03:07:37;292.93;;;119.50;;
7017;SDS011;3549;42.162;24.726;2022-12-11T03:10:05;102.37;;;43.47;;
7017;SDS011;3549;42.162;24.726;2022-12-11T03:12:34;73.53;;;28.73;;
7017;SDS011;3549;42.162;24.726;2022-12-11T03:15:04;67.57;;;29.80;;
7017;SDS011;3549;42.162;24.726;2022-12-11T03:17:55;68.13;;;29.80;;
7017;SDS011;3549;42.162;24.726;2022-12-11T03:20:36;60.87;;;26.43;;
7017;SDS011;3549;42.162;24.726;2022-12-11T03:26:16;90.77;;;38.93;;
7017;SDS011;3549;42.162;24.726;2022-12-11T03:28:48;90.83;;;38.33;;
7017;SDS011;3549;42.162;24.726;2022-12-11T03:33:55;64.03;;;28.60;;
7017;SDS011;3549;42.162;24.726;2022-12-11T03:36:26;68.37;;;29.93;;
7017;SDS011;3549;42.162;24.726;2022-12-11T03:39:11;47.53;;;19.03;;
7017;SDS011;3549;42.162;24.726;2022-12-11T03:41:47;48.33;;;22.13;;
7017;SDS011;3549;42.162;24.726;2022-12-11T03:44:14;45.43;;;17.63;;
7017;SDS011;3549;42.162;24.726;2022-12-11T03:46:40;44.93;;;18.67;;
7017;SDS011;3549;42.162;24.726;2022-12-11T03:49:14;36.03;;;14.50;;
7017;SDS011;3549;42.162;24.726;2022-12-11T03:51:42;41.57;;;18.03;;
7017;SDS011;3549;42.162;24.726;2022-12-11T03:54:10;38.10;;;15.60;;
7017;SDS011;3549;42.162;24.726;2022-12-11T03:56:36;39.73;;;16.50;;
7017;SDS011;3549;42.162;24.726;2022-12-11T03:59:03;55.90;;;24.73;;
7017;SDS011;3549;42.162;24.726;2022-12-11T04:01:29;75.97;;;36.03;;
7017;SDS011;3549;42.162;24.726;2022-12-11T04:03:54;148.60;;;72.37;;
7017;SDS011;3549;42.162;24.726;2022-12-11T04:06:20;128.30;;;65.87;;
7017;SDS011;3549;42.162;24.726;2022-12-11T04:08:45;81.37;;;41.43;;
7017;SDS011;3549;42.162;24.726;2022-12-11T04:11:11;84.17;;;39.23;;
7017;SDS011;3549;42.162;24.726;2022-12-11T04:13:55;47.33;;;23.97;;
7017;SDS011;3549;42.162;24.726;2022-12-11T04:16:39;72.93;;;34.90;;
7017;SDS011;3549;42.162;24.726;2022-12-11T04:19:04;67.93;;;33.33;;
7017;SDS011;3549;42.162;24.726;2022-12-11T04:21:48;69.50;;;32.50;;
7017;SDS011;3549;42.162;24.726;2022-12-11T04:24:32;72.17;;;38.40;;
7017;SDS011;3549;42.162;24.726;2022-12-11T04:26:58;54.83;;;28.20;;
7017;SDS011;3549;42.162;24.726;2022-12-11T04:29:23;46.90;;;20.53;;
7017;SDS011;3549;42.162;24.726;2022-12-11T04:31:49;44.13;;;19.93;;
7017;SDS011;3549;42.162;24.726;2022-12-11T04:34:14;42.50;;;21.50;;
7017;SDS011;3549;42.162;24.726;2022-12-11T04:36:40;46.43;;;25.43;;
7017;SDS011;3549;42.162;24.726;2022-12-11T04:39:06;44.10;;;21.77;;
7017;SDS011;3549;42.162;24.726;2022-12-11T04:41:32;41.63;;;21.50;;
7017;SDS011;3549;42.162;24.726;2022-12-11T04:43:57;49.00;;;21.33;;
7017;SDS011;3549;42.162;24.726;2022-12-11T04:46:23;52.60;;;28.37;;
7017;SDS011;3549;42.162;24.726;2022-12-11T04:48:50;64.13;;;35.47;;
7017;SDS011;3549;42.162;24.726;2022-12-11T04:51:17;43.50;;;19.43;;
7017;SDS011;3549;42.162;24.726;2022-12-11T04:53:43;87.13;;;40.03;;
7017;SDS011;3549;42.162;24.726;2022-12-11T04:56:10;46.63;;;22.67;;
7017;SDS011;3549;42.162;24.726;2022-12-11T04:58:38;68.80;;;35.80;;
7017;SDS011;3549;42.162;24.726;2022-12-11T05:01:10;46.47;;;21.33;;
7017;SDS011;3549;42.162;24.726;2022-12-11T05:03:37;44.20;;;20.93;;
7017;SDS011;3549;42.162;24.726;2022-12-11T05:06:04;35.77;;;18.33;;
7017;SDS011;3549;42.162;24.726;2022-12-11T05:08:30;48.47;;;24.90;;
7017;SDS011;3549;42.162;24.726;2022-12-11T05:10:59;67.30;;;33.97;;
7017;SDS011;3549;42.162;24.726;2022-12-11T05:13:26;90.10;;;40.60;;
7017;SDS011;3549;42.162;24.726;2022-12-11T05:15:53;71.57;;;34.27;;
7017;SDS011;3549;42.162;24.726;2022-12-11T05:18:19;62.53;;;31.90;;
7017;SDS011;3549;42.162;24.726;2022-12-11T05:20:44;66.83;;;33.57;;
7017;SDS011;3549;42.162;24.726;2022-12-11T05:23:09;445.70;;;237.80;;
7017;SDS011;3549;42.162;24.726;2022-12-11T05:25:35;191.23;;;98.63;;
7017;SDS011;3549;42.162;24.726;2022-12-11T05:28:01;146.90;;;74.97;;
7017;SDS011;3549;42.162;24.726;2022-12-11T05:30:26;66.53;;;32.90;;
7017;SDS011;3549;42.162;24.726;2022-12-11T05:32:51;73.30;;;37.80;;
7017;SDS011;3549;42.162;24.726;2022-12-11T05:35:17;108.67;;;48.50;;
7017;SDS011;3549;42.162;24.726;2022-12-11T05:37:42;64.33;;;31.83;;
7017;SDS011;3549;42.162;24.726;2022-12-11T05:40:08;155.57;;;64.57;;
7017;SDS011;3549;42.162;24.726;2022-12-11T05:42:36;166.87;;;72.50;;
7017;SDS011;3549;42.162;24.726;2022-12-11T05:45:02;101.37;;;48.37;;
7017;SDS011;3549;42.162;24.726;2022-12-11T05:47:29;66.63;;;34.03;;
7017;SDS011;3549;42.162;24.726;2022-12-11T05:49:55;64.93;;;30.93;;
7017;SDS011;3549;42.162;24.726;2022-12-11T05:52:20;64.50;;;31.33;;
7017;SDS011;3549;42.162;24.726;2022-12-11T05:54:47;75.90;;;38.93;;
7017;SDS011;3549;42.162;24.726;2022-12-11T05:57:14;76.50;;;37.60;;
7017;SDS011;3549;42.162;24.726;2022-12-11T05:59:40;112.90;;;52.50;;
7017;SDS011;3549;42.162;24.726;2022-12-11T06:02:05;180.77;;;76.37;;
7017;SDS011;3549;42.162;24.726;2022-12-11T06:04:31;61.23;;;30.57;;
7017;SDS011;3549;42.162;24.726;2022-12-11T06:06:57;65.37;;;31.93;;
7017;SDS011;3549;42.162;24.726;2022-12-11T06:09:22;66.10;;;30.13;;
7017;SDS011;3549;42.162;24.726;2022-12-11T06:11:47;62.77;;;30.20;;
7017;SDS011;3549;42.162;24.726;2022-12-11T06:14:13;72.20;;;34.53;;
7017;SDS011;3549;42.162;24.726;2022-12-11T06:16:38;63.80;;;29.17;;
7017;SDS011;3549;42.162;24.726;2022-12-11T06:19:05;51.77;;;24.00;;
7017;SDS011;3549;42.162;24.726;2022-12-11T06:21:31;45.50;;;22.23;;
7017;SDS011;3549;42.162;24.726;2022-12-11T06:23:58;47.03;;;21.73;;
7017;SDS011;3549;42.162;24.726;2022-12-11T06:26:25;40.00;;;18.50;;
7017;SDS011;3549;42.162;24.726;2022-12-11T06:28:51;39.93;;;20.93;;
7017;SDS011;3549;42.162;24.726;2022-12-11T06:31:17;50.67;;;25.63;;
7017;SDS011;3549;42.162;24.726;2022-12-11T06:33:43;59.10;;;26.87;;
7017;SDS011;3549;42.162;24.726;2022-12-11T06:36:11;48.17;;;22.80;;
7017;SDS011;3549;42.162;24.726;2022-12-11T06:38:40;67.40;;;34.07;;
7017;SDS011;3549;42.162;24.726;2022-12-11T06:41:06;44.97;;;22.63;;
7017;SDS011;3549;42.162;24.726;2022-12-11T06:43:34;44.93;;;21.70;;
7017;SDS011;3549;42.162;24.726;2022-12-11T06:46:03;45.07;;;23.67;;
7017;SDS011;3549;42.162;24.726;2022-12-11T06:48:40;44.20;;;24.57;;
7017;SDS011;3549;42.162;24.726;2022-12-11T06:51:07;51.70;;;25.23;;
7017;SDS011;3549;42.162;24.726;2022-12-11T06:53:34;45.30;;;25.60;;
7017;SDS011;3549;42.162;24.726;2022-12-11T06:56:03;42.00;;;22.60;;
7017;SDS011;3549;42.162;24.726;2022-12-11T06:58:30;48.90;;;29.77;;
7017;SDS011;3549;42.162;24.726;2022-12-11T07:00:57;46.87;;;25.10;;
7017;SDS011;3549;42.162;24.726;2022-12-11T07:03:22;62.30;;;34.00;;
7017;SDS011;3549;42.162;24.726;2022-12-11T07:05:48;37.23;;;21.07;;
7017;SDS011;3549;42.162;24.726;2022-12-11T07:08:13;65.87;;;33.20;;
7017;SDS011;3549;42.162;24.726;2022-12-11T07:10:39;109.30;;;52.77;;
7017;SDS011;3549;42.162;24.726;2022-12-11T07:13:05;90.13;;;47.17;;
7017;SDS011;3549;42.162;24.726;2022-12-11T07:15:31;71.13;;;38.60;;
7017;SDS011;3549;42.162;24.726;2022-12-11T07:17:56;55.43;;;28.57;;
7017;SDS011;3549;42.162;24.726;2022-12-11T07:20:21;65.60;;;34.80;;
7017;SDS011;3549;42.162;24.726;2022-12-11T07:22:47;59.27;;;30.53;;
7017;SDS011;3549;42.162;24.726;2022-12-11T07:25:15;46.10;;;24.73;;
7017;SDS011;3549;42.162;24.726;2022-12-11T07:27:40;45.00;;;23.00;;
7017;SDS011;3549;42.162;24.726;2022-12-11T07:30:06;61.10;;;31.60;;
7017;SDS011;3549;42.162;24.726;2022-12-11T07:32:33;47.30;;;25.83;;
7017;SDS011;3549;42.162;24.726;2022-12-11T07:34:58;54.10;;;27.53;;
7017;SDS011;3549;42.162;24.726;2022-12-11T07:37:24;45.63;;;24.87;;
7017;SDS011;3549;42.162;24.726;2022-12-11T07:39:49;49.60;;;25.73;;
7017;SDS011;3549;42.162;24.726;2022-12-11T07:42:15;51.77;;;27.03;;
7017;SDS011;3549;42.162;24.726;2022-12-11T07:44:40;57.50;;;28.83;;
7017;SDS011;3549;42.162;24.726;2022-12-11T07:47:06;54.20;;;28.63;;
7017;SDS011;3549;42.162;24.726;2022-12-11T07:49:31;50.20;;;25.97;;
7017;SDS011;3549;42.162;24.726;2022-12-11T07:51:56;52.50;;;28.83;;
7017;SDS011;3549;42.162;24.726;2022-12-11T07:54:22;51.57;;;27.33;;
7017;SDS011;3549;42.162;24.726;2022-12-11T07:56:47;49.60;;;25.33;;
7017;SDS011;3549;42.162;24.726;2022-12-11T07:59:13;46.90;;;24.23;;
7017;SDS011;3549;42.162;24.726;2022-12-11T08:01:39;51.03;;;26.63;;
7017;SDS011;3549;42.162;24.726;2022-12-11T08:04:05;49.53;;;26.20;;
7017;SDS011;3549;42.162;24.726;2022-12-11T08:06:32;52.33;;;27.90;;
7017;SDS011;3549;42.162;24.726;2022-12-11T08:09:00;51.03;;;27.33;;
7017;SDS011;3549;42.162;24.726;2022-12-11T08:11:27;52.80;;;26.53;;
7017;SDS011;3549;42.162;24.726;2022-12-11T08:13:53;45.33;;;23.33;;
7017;SDS011;3549;42.162;24.726;2022-12-11T08:16:19;41.67;;;22.47;;
7017;SDS011;3549;42.162;24.726;2022-12-11T08:18:45;39.73;;;22.20;;
7017;SDS011;3549;42.162;24.726;2022-12-11T08:21:12;44.97;;;26.27;;
7017;SDS011;3549;42.162;24.726;2022-12-11T08:23:39;37.00;;;19.17;;
7017;SDS011;3549;42.162;24.726;2022-12-11T08:26:05;35.23;;;18.77;;
7017;SDS011;3549;42.162;24.726;2022-12-11T08:28:32;48.00;;;31.90;;
7017;SDS011;3549;42.162;24.726;2022-12-11T08:30:58;36.97;;;20.47;;
7017;SDS011;3549;42.162;24.726;2022-12-11T08:33:24;44.30;;;22.77;;
7017;SDS011;3549;42.162;24.726;2022-12-11T08:35:50;45.40;;;23.87;;
7017;SDS011;3549;42.162;24.726;2022-12-11T08:38:15;40.77;;;23.93;;
7017;SDS011;3549;42.162;24.726;2022-12-11T08:40:41;34.90;;;16.80;;
7017;SDS011;3549;42.162;24.726;2022-12-11T08:43:06;39.70;;;23.20;;
7017;SDS011;3549;42.162;24.726;2022-12-11T08:45:31;37.17;;;20.93;;
7017;SDS011;3549;42.162;24.726;2022-12-11T08:47:57;33.10;;;18.80;;
7017;SDS011;3549;42.162;24.726;2022-12-11T08:50:24;37.97;;;19.73;;
7017;SDS011;3549;42.162;24.726;2022-12-11T08:52:49;31.97;;;17.30;;
7017;SDS011;3549;42.162;24.726;2022-12-11T08:55:15;29.67;;;18.33;;
7017;SDS011;3549;42.162;24.726;2022-12-11T08:57:40;32.20;;;18.07;;
7017;SDS011;3549;42.162;24.726;2022-12-11T09:00:06;37.33;;;18.80;;
7017;SDS011;3549;42.162;24.726;2022-12-11T09:02:33;39.47;;;19.77;;
7017;SDS011;3549;42.162;24.726;2022-12-11T09:04:59;35.50;;;19.73;;
7017;SDS011;3549;42.162;24.726;2022-12-11T09:07:24;34.23;;;18.80;;
7017;SDS011;3549;42.162;24.726;2022-12-11T09:09:52;29.40;;;15.90;;
7017;SDS011;3549;42.162;24.726;2022-12-11T09:12:18;29.17;;;15.23;;
7017;SDS011;3549;42.162;24.726;2022-12-11T09:14:44;25.93;;;14.10;;
7017;SDS011;3549;42.162;24.726;2022-12-11T09:17:09;23.20;;;13.43;;
7017;SDS011;3549;42.162;24.726;2022-12-11T09:19:35;21.57;;;11.57;;
7017;SDS011;3549;42.162;24.726;2022-12-11T09:22:00;21.47;;;11.43;;
7017;SDS011;3549;42.162;24.726;2022-12-11T09:24:25;15.97;;;9.50;;
7017;SDS011;3549;42.162;24.726;2022-12-11T09:26:51;19.70;;;8.70;;
7017;SDS011;3549;42.162;24.726;2022-12-11T09:29:16;18.73;;;9.60;;
7017;SDS011;3549;42.162;24.726;2022-12-11T09:31:42;17.87;;;9.07;;
7017;SDS011;3549;42.162;24.726;2022-12-11T09:34:08;18.27;;;9.40;;
7017;SDS011;3549;42.162;24.726;2022-12-11T09:36:37;17.47;;;8.40;;
7017;SDS011;3549;42.162;24.726;2022-12-11T09:39:04;18.10;;;8.50;;
7017;SDS011;3549;42.162;24.726;2022-12-11T09:41:38;19.60;;;8.73;;
7017;SDS011;3549;42.162;24.726;2022-12-11T09:44:18;22.30;;;9.00;;
7017;SDS011;3549;42.162;24.726;2022-12-11T09:46:57;19.80;;;8.97;;
7017;SDS011;3549;42.162;24.726;2022-12-11T09:49:38;13.13;;;7.10;;
7017;SDS011;3549;42.162;24.726;2022-12-11T09:52:18;15.50;;;8.07;;
7017;SDS011;3549;42.162;24.726;2022-12-11T09:54:57;16.43;;;9.33;;
7017;SDS011;3549;42.162;24.726;2022-12-11T09:57:30;14.73;;;7.13;;
7017;SDS011;3549;42.162;24.726;2022-12-11T10:06:05;18.90;;;8.77;;
7017;SDS011;3549;42.162;24.726;2022-12-11T10:16:51;13.73;;;7.37;;
7017;SDS011;3549;42.162;24.726;2022-12-11T10:19:23;14.47;;;7.63;;
7017;SDS011;3549;42.162;24.726;2022-12-11T10:21:51;13.57;;;6.50;;
7017;SDS011;3549;42.162;24.726;2022-12-11T10:27:16;14.77;;;5.67;;
7017;SDS011;3549;42.162;24.726;2022-12-11T10:29:44;16.13;;;5.60;;
7017;SDS011;3549;42.162;24.726;2022-12-11T10:32:17;13.83;;;6.27;;
7017;SDS011;3549;42.162;24.726;2022-12-11T10:34:48;10.77;;;5.60;;
7017;SDS011;3549;42.162;24.726;2022-12-11T10:37:19;14.60;;;6.20;;
7017;SDS011;3549;42.162;24.726;2022-12-11T10:39:45;11.60;;;5.63;;
7017;SDS011;3549;42.162;24.726;2022-12-11T10:42:19;14.70;;;7.53;;
7017;SDS011;3549;42.162;24.726;2022-12-11T10:44:56;14.80;;;8.50;;
7017;SDS011;3549;42.162;24.726;2022-12-11T10:47:23;14.33;;;7.00;;
7017;SDS011;3549;42.162;24.726;2022-12-11T10:49:59;11.43;;;5.87;;
7017;SDS011;3549;42.162;24.726;2022-12-11T10:55:00;13.93;;;6.47;;
7017;SDS011;3549;42.162;24.726;2022-12-11T10:57:34;13.80;;;7.30;;
7017;SDS011;3549;42.162;24.726;2022-12-11T11:00:03;15.50;;;6.97;;
7017;SDS011;3549;42.162;24.726;2022-12-11T11:02:31;39.53;;;20.23;;
7017;SDS011;3549;42.162;24.726;2022-12-11T11:05:00;29.60;;;12.87;;
7017;SDS011;3549;42.162;24.726;2022-12-11T11:08:11;22.83;;;10.33;;
7017;SDS011;3549;42.162;24.726;2022-12-11T11:10:53;16.80;;;7.33;;
7017;SDS011;3549;42.162;24.726;2022-12-11T11:13:21;16.73;;;7.93;;
7017;SDS011;3549;42.162;24.726;2022-12-11T11:15:49;18.10;;;7.30;;
7017;SDS011;3549;42.162;24.726;2022-12-11T11:18:24;15.90;;;6.97;;
7017;SDS011;3549;42.162;24.726;2022-12-11T11:20:51;16.80;;;5.57;;
7017;SDS011;3549;42.162;24.726;2022-12-11T11:23:18;14.03;;;6.33;;
7017;SDS011;3549;42.162;24.726;2022-12-11T11:25:57;16.67;;;6.10;;
7017;SDS011;3549;42.162;24.726;2022-12-11T11:28:28;32.63;;;16.17;;
7017;SDS011;3549;42.162;24.726;2022-12-11T11:33:26;15.83;;;6.47;;
7017;SDS011;3549;42.162;24.726;2022-12-11T11:35:54;20.40;;;11.07;;
7017;SDS011;3549;42.162;24.726;2022-12-11T11:38:24;21.03;;;10.23;;
7017;SDS011;3549;42.162;24.726;2022-12-11T11:41:09;15.40;;;8.10;;
7017;SDS011;3549;42.162;24.726;2022-12-11T11:43:37;29.93;;;14.13;;
7017;SDS011;3549;42.162;24.726;2022-12-11T11:51:29;17.37;;;8.83;;
7017;SDS011;3549;42.162;24.726;2022-12-11T11:54:00;8.20;;;4.33;;
7017;SDS011;3549;42.162;24.726;2022-12-11T11:56:35;9.67;;;3.67;;
7017;SDS011;3549;42.162;24.726;2022-12-11T12:01:43;14.83;;;7.03;;
7017;SDS011;3549;42.162;24.726;2022-12-11T12:04:12;12.30;;;5.23;;
7017;SDS011;3549;42.162;24.726;2022-12-11T12:06:41;12.23;;;5.50;;
7017;SDS011;3549;42.162;24.726;2022-12-11T12:12:10;8.57;;;5.07;;
7017;SDS011;3549;42.162;24.726;2022-12-11T12:22:54;11.40;;;5.00;;
7017;SDS011;3549;42.162;24.726;2022-12-11T12:25:30;14.80;;;7.80;;
7017;SDS011;3549;42.162;24.726;2022-12-11T12:30:55;12.77;;;6.40;;
7017;SDS011;3549;42.162;24.726;2022-12-11T12:36:55;16.93;;;6.57;;
7017;SDS011;3549;42.162;24.726;2022-12-11T12:40:09;30.73;;;11.63;;
7017;SDS011;3549;42.162;24.726;2022-12-11T12:47:42;39.40;;;22.43;;
7017;SDS011;3549;42.162;24.726;2022-12-11T12:50:11;39.60;;;21.80;;
7017;SDS011;3549;42.162;24.726;2022-12-11T12:52:43;32.97;;;14.13;;
7017;SDS011;3549;42.162;24.726;2022-12-11T12:57:49;42.00;;;19.17;;
7017;SDS011;3549;42.162;24.726;2022-12-11T13:03:16;122.57;;;68.10;;
7017;SDS011;3549;42.162;24.726;2022-12-11T13:08:51;322.03;;;163.63;;
7017;SDS011;3549;42.162;24.726;2022-12-11T13:11:18;226.53;;;117.03;;
7017;SDS011;3549;42.162;24.726;2022-12-11T13:13:46;50.60;;;27.67;;
7017;SDS011;3549;42.162;24.726;2022-12-11T13:18:40;41.63;;;21.37;;
7017;SDS011;3549;42.162;24.726;2022-12-11T13:23:53;20.90;;;10.07;;
7017;SDS011;3549;42.162;24.726;2022-12-11T13:26:29;19.73;;;9.77;;
7017;SDS011;3549;42.162;24.726;2022-12-11T13:28:57;22.00;;;9.60;;
7017;SDS011;3549;42.162;24.726;2022-12-11T13:33:51;20.50;;;9.30;;
7017;SDS011;3549;42.162;24.726;2022-12-11T13:38:52;19.00;;;10.03;;
7017;SDS011;3549;42.162;24.726;2022-12-11T13:41:24;413.57;;;222.40;;
7017;SDS011;3549;42.162;24.726;2022-12-11T13:43:51;425.17;;;234.00;;
7017;SDS011;3549;42.162;24.726;2022-12-11T13:46:25;240.20;;;127.13;;
7017;SDS011;3549;42.162;24.726;2022-12-11T13:48:54;97.63;;;52.97;;
7017;SDS011;3549;42.162;24.726;2022-12-11T13:51:25;31.80;;;17.27;;
7017;SDS011;3549;42.162;24.726;2022-12-11T13:54:02;33.73;;;18.30;;
7017;SDS011;3549;42.162;24.726;2022-12-11T13:56:56;39.93;;;22.93;;
7017;SDS011;3549;42.162;24.726;2022-12-11T13:59:28;28.50;;;15.50;;
7017;SDS011;3549;42.162;24.726;2022-12-11T14:01:56;22.23;;;12.97;;
7017;SDS011;3549;42.162;24.726;2022-12-11T14:04:24;40.93;;;22.27;;
7017;SDS011;3549;42.162;24.726;2022-12-11T14:06:52;31.80;;;14.80;;
7017;SDS011;3549;42.162;24.726;2022-12-11T14:09:19;41.03;;;21.53;;
7017;SDS011;3549;42.162;24.726;2022-12-11T14:11:50;35.60;;;17.07;;
7017;SDS011;3549;42.162;24.726;2022-12-11T14:14:21;36.33;;;19.97;;
7017;SDS011;3549;42.162;24.726;2022-12-11T14:17:03;40.80;;;21.63;;
7017;SDS011;3549;42.162;24.726;2022-12-11T14:19:28;32.03;;;19.23;;
7017;SDS011;3549;42.162;24.726;2022-12-11T14:21:59;209.87;;;98.80;;
7017;SDS011;3549;42.162;24.726;2022-12-11T14:24:28;61.07;;;31.33;;
7017;SDS011;3549;42.162;24.726;2022-12-11T14:26:55;60.43;;;37.13;;
7017;SDS011;3549;42.162;24.726;2022-12-11T14:31:50;44.23;;;26.63;;
7017;SDS011;3549;42.162;24.726;2022-12-11T14:36:47;65.07;;;34.93;;
7017;SDS011;3549;42.162;24.726;2022-12-11T14:39:18;94.43;;;65.97;;
7017;SDS011;3549;42.162;24.726;2022-12-11T14:41:50;34.10;;;20.23;;
7017;SDS011;3549;42.162;24.726;2022-12-11T14:44:21;24.87;;;12.50;;
7017;SDS011;3549;42.162;24.726;2022-12-11T14:46:54;44.13;;;22.53;;
7017;SDS011;3549;42.162;24.726;2022-12-11T14:49:27;20.23;;;9.50;;
7017;SDS011;3549;42.162;24.726;2022-12-11T14:51:53;27.37;;;12.60;;
7017;SDS011;3549;42.162;24.726;2022-12-11T14:54:27;23.90;;;12.10;;
7017;SDS011;3549;42.162;24.726;2022-12-11T14:56:58;30.83;;;15.07;;
7017;SDS011;3549;42.162;24.726;2022-12-11T14:59:26;10.20;;;5.53;;
7017;SDS011;3549;42.162;24.726;2022-12-11T15:01:59;16.23;;;8.87;;
7017;SDS011;3549;42.162;24.726;2022-12-11T15:04:30;17.33;;;8.73;;
7017;SDS011;3549;42.162;24.726;2022-12-11T15:06:56;15.13;;;8.20;;
7017;SDS011;3549;42.162;24.726;2022-12-11T15:09:27;11.10;;;6.70;;
7017;SDS011;3549;42.162;24.726;2022-12-11T15:12:13;9.83;;;4.40;;
7017;SDS011;3549;42.162;24.726;2022-12-11T15:14:52;5.10;;;4.03;;
7017;SDS011;3549;42.162;24.726;2022-12-11T15:17:20;2.27;;;1.60;;
7017;SDS011;3549;42.162;24.726;2022-12-11T15:19:47;1.53;;;1.30;;
7017;SDS011;3549;42.162;24.726;2022-12-11T15:22:16;2.53;;;1.90;;
7017;SDS011;3549;42.162;24.726;2022-12-11T15:24:43;2.57;;;1.60;;
7017;SDS011;3549;42.162;24.726;2022-12-11T15:27:23;2.63;;;1.80;;
7017;SDS011;3549;42.162;24.726;2022-12-11T15:30:01;3.13;;;2.20;;
7017;SDS011;3549;42.162;24.726;2022-12-11T15:32:39;3.93;;;2.70;;
7017;SDS011;3549;42.162;24.726;2022-12-11T15:35:24;4.77;;;2.50;;
7017;SDS011;3549;42.162;24.726;2022-12-11T15:37:55;2.93;;;1.53;;
7017;SDS011;3549;42.162;24.726;2022-12-11T15:40:21;4.20;;;2.20;;
7017;SDS011;3549;42.162;24.726;2022-12-11T15:42:48;3.37;;;2.20;;
7017;SDS011;3549;42.162;24.726;2022-12-11T15:45:18;3.27;;;2.20;;
7017;SDS011;3549;42.162;24.726;2022-12-11T15:47:46;3.60;;;2.37;;
7017;SDS011;3549;42.162;24.726;2022-12-11T15:50:17;4.00;;;2.70;;
7017;SDS011;3549;42.162;24.726;2022-12-11T15:52:45;3.33;;;2.20;;
7017;SDS011;3549;42.162;24.726;2022-12-11T15:55:11;3.33;;;2.43;;
7017;SDS011;3549;42.162;24.726;2022-12-11T15:57:38;4.43;;;2.83;;
7017;SDS011;3549;42.162;24.726;2022-12-11T16:00:09;5.67;;;3.97;;
7017;SDS011;3549;42.162;24.726;2022-12-11T16:02:38;6.80;;;4.73;;
7017;SDS011;3549;42.162;24.726;2022-12-11T16:05:04;9.57;;;6.30;;
7017;SDS011;3549;42.162;24.726;2022-12-11T16:07:29;5.10;;;3.37;;
7017;SDS011;3549;42.162;24.726;2022-12-11T16:09:55;4.67;;;2.97;;
7017;SDS011;3549;42.162;24.726;2022-12-11T16:12:20;3.33;;;2.20;;
7017;SDS011;3549;42.162;24.726;2022-12-11T16:14:45;2.23;;;1.50;;
7017;SDS011;3549;42.162;24.726;2022-12-11T16:17:12;2.60;;;1.70;;
7017;SDS011;3549;42.162;24.726;2022-12-11T16:19:39;2.00;;;1.80;;